Time;durP1;ratioP1;P1;durP2;ratioP2;P2;SDS_P1;SDS_P2;PMS_P1;PMS_P2;Temp;Humidity;BMP_temperature;BMP_pressure;BME280_temperature;BME280_humidity;BME280_pressure;Samples;Min_cycle;Max_cycle;Signal;HPM_P1;HPM_P2
2022/06/19 00:04:02;;;;;;;5.00;2.07;;;22.30;55.60;;;;;;8366216;28;20196;-65
2022/06/19 00:08:03;;;;;;;2.50;1.57;;;22.20;58.10;;;;;;8363310;28;20544;-66
2022/06/19 00:12:05;;;;;;;4.27;1.80;;;22.20;63.20;;;;;;8375108;28;20185;-65
2022/06/19 00:16:06;;;;;;;5.70;1.70;;;22.20;72.40;;;;;;8379324;28;20205;-64
2022/06/19 00:20:08;;;;;;;2.93;1.40;;;22.20;76.60;;;;;;8367779;28;20203;-65
2022/06/19 00:24:08;;;;;;;3.00;1.93;;;22.20;82.30;;;;;;8366014;28;20185;-66
2022/06/19 00:28:09;;;;;;;3.20;1.80;;;22.10;90.00;;;;;;8370239;28;20212;-65
2022/06/19 00:32:10;;;;;;;6.00;2.73;;;22.00;97.20;;;;;;8370460;28;20190;-65
2022/06/19 00:36:11;;;;;;;5.47;2.97;;;22.00;99.90;;;;;;8367442;28;20201;-66
2022/06/19 00:40:13;;;;;;;5.00;2.50;;;21.90;99.90;;;;;;8364452;28;20186;-65
2022/06/19 00:44:15;;;;;;;7.40;2.37;;;21.90;99.90;;;;;;8364215;28;20189;-65
2022/06/19 00:48:24;;;;;;;3.90;2.07;;;21.80;99.90;;;;;;8369681;28;20259;-65
2022/06/19 00:52:38;;;;;;;3.83;2.03;;;21.80;99.90;;;;;;8386551;28;20608;-66
2022/06/19 00:56:39;;;;;;;3.20;1.87;;;21.80;99.90;;;;;;8370356;28;20302;-65
2022/06/19 01:00:40;;;;;;;7.37;3.27;;;21.70;99.90;;;;;;8367692;28;20178;-66
2022/06/19 01:04:50;;;;;;;7.53;3.13;;;21.60;99.90;;;;;;8364280;28;20211;-66
2022/06/19 01:08:52;;;;;;;4.50;2.97;;;21.60;99.90;;;;;;8364549;28;20326;-65
2022/06/19 01:12:55;;;;;;;6.07;2.73;;;21.50;99.90;;;;;;8370101;28;20208;-65
2022/06/19 01:16:56;;;;;;;4.43;2.67;;;21.50;99.90;;;;;;8363351;28;20206;-65
2022/06/19 01:21:08;;;;;;;4.87;2.43;;;21.40;99.90;;;;;;8364587;28;20184;-67
2022/06/19 01:25:20;;;;;;;5.33;2.87;;;21.40;99.90;;;;;;8364592;28;20185;-66
2022/06/19 01:29:21;;;;;;;4.27;3.27;;;21.30;99.90;;;;;;8369227;28;20268;-66
2022/06/19 01:33:49;;;;;;;5.27;3.07;;;21.30;99.90;;;;;;8366466;28;20248;-66
2022/06/19 01:37:51;;;;;;;6.03;2.83;;;21.30;99.90;;;;;;8363003;28;20201;-66
2022/06/19 01:41:51;;;;;;;7.27;3.00;;;21.20;99.90;;;;;;8370182;28;20268;-66
2022/06/19 01:45:55;;;;;;;6.83;2.90;;;21.10;99.90;;;;;;8368810;28;20192;-67
2022/06/19 01:49:57;;;;;;;4.60;2.80;;;21.00;99.90;;;;;;8365623;28;20185;-65
2022/06/19 01:54:15;;;;;;;9.17;4.20;;;20.90;99.90;;;;;;8364628;28;20733;-65
2022/06/19 01:58:19;;;;;;;11.27;4.83;;;20.70;99.90;;;;;;8362400;28;20244;-66
2022/06/19 02:02:21;;;;;;;5.00;3.43;;;20.60;1.00;;;;;;8365819;28;20197;-66
2022/06/19 02:06:31;;;;;;;6.30;3.37;;;20.60;1.00;;;;;;8375254;28;20185;-66
2022/06/19 02:10:36;;;;;;;3.53;2.93;;;20.50;1.00;;;;;;8371802;28;20325;-67
2022/06/19 02:14:37;;;;;;;6.90;3.87;;;20.40;1.00;;;;;;8371702;28;20203;-66
2022/06/19 02:18:42;;;;;;;54.60;23.63;;;20.20;1.00;;;;;;8374021;28;20215;-66
2022/06/19 02:22:43;;;;;;;31.83;14.60;;;20.00;99.90;;;;;;8374483;28;20242;-66
2022/06/19 02:26:44;;;;;;;9.37;5.40;;;19.80;99.90;;;;;;8369260;28;20189;-67
2022/06/19 02:30:47;;;;;;;8.47;4.27;;;19.60;99.90;;;;;;8370127;28;20209;-67
2022/06/19 02:34:50;;;;;;;6.40;3.57;;;19.50;99.90;;;;;;8367288;28;20209;-66
2022/06/19 02:38:51;;;;;;;7.13;4.17;;;19.50;99.90;;;;;;8365265;28;20188;-65
2022/06/19 02:42:51;;;;;;;7.17;5.03;;;19.40;99.90;;;;;;8368255;28;20209;-65
2022/06/19 02:46:52;;;;;;;8.57;5.20;;;19.30;99.90;;;;;;8377186;28;20208;-66
2022/06/19 02:50:57;;;;;;;10.97;5.10;;;19.10;99.90;;;;;;8374918;28;20177;-66
2022/06/19 02:54:58;;;;;;;7.93;4.37;;;19.00;99.90;;;;;;8374165;28;20196;-67
2022/06/19 02:58:58;;;;;;;13.70;6.57;;;18.90;99.90;;;;;;8372611;28;20173;-67
2022/06/19 03:03:08;;;;;;;3.87;2.93;;;19.00;99.90;;;;;;8376752;28;20283;-67
2022/06/19 03:07:09;;;;;;;3.23;2.53;;;19.30;99.90;;;;;;8371872;28;20177;-68
2022/06/19 03:11:10;;;;;;;3.37;2.60;;;19.60;1.00;;;;;;8373294;28;20246;-66
2022/06/19 03:15:12;;;;;;;6.97;5.00;;;19.80;1.00;;;;;;8376068;28;20197;-67
2022/06/19 03:19:13;;;;;;;8.93;5.83;;;19.80;99.90;;;;;;8379986;28;20177;-67
2022/06/19 03:23:14;;;;;;;8.30;6.73;;;19.60;99.90;;;;;;8378544;28;20178;-66
2022/06/19 03:27:15;;;;;;;9.57;7.23;;;19.50;99.90;;;;;;8376642;28;20278;-67
2022/06/19 03:31:24;;;;;;;8.13;5.73;;;19.60;99.90;;;;;;8372210;28;20182;-67
2022/06/19 03:35:25;;;;;;;9.77;5.30;;;19.70;99.90;;;;;;8372344;28;20213;-66
2022/06/19 03:39:25;;;;;;;10.10;6.53;;;19.80;99.90;;;;;;8373041;28;20192;-66
2022/06/19 03:43:26;;;;;;;10.33;7.07;;;19.50;99.90;;;;;;8367776;28;20184;-66
2022/06/19 03:47:27;;;;;;;12.43;8.10;;;19.60;99.90;;;;;;8373660;28;20208;-67
2022/06/19 03:51:28;;;;;;;13.47;8.47;;;19.90;99.90;;;;;;8370792;28;20210;-67
2022/06/19 03:55:29;;;;;;;13.10;7.73;;;20.30;99.90;;;;;;8364089;28;20209;-67
2022/06/19 03:59:29;;;;;;;15.00;9.70;;;20.60;99.90;;;;;;8371567;28;20268;-66
2022/06/19 04:03:31;;;;;;;11.77;7.30;;;21.00;75.80;;;;;;8370438;28;20225;-67
2022/06/19 04:07:31;;;;;;;10.50;6.50;;;21.20;5.00;;;;;;8376502;28;20241;-68
2022/06/19 04:11:33;;;;;;;12.37;9.53;;;21.50;1.00;;;;;;8368937;28;20213;-67
2022/06/19 04:15:35;;;;;;;9.23;4.90;;;21.70;1.00;;;;;;8372622;28;20303;-67
2022/06/19 04:19:36;;;;;;;6.60;4.87;;;21.30;1.00;;;;;;8379150;28;20190;-67
2022/06/19 04:23:36;;;;;;;5.13;4.47;;;21.50;1.00;;;;;;8372223;28;20182;-67
2022/06/19 04:27:38;;;;;;;8.90;5.93;;;21.80;1.00;;;;;;8389926;28;20224;-67
2022/06/19 04:31:40;;;;;;;6.10;4.83;;;22.30;1.00;;;;;;8372692;28;20178;-67
2022/06/19 04:35:41;;;;;;;11.93;5.93;;;22.90;99.90;;;;;;8372312;28;20213;-67
2022/06/19 04:39:42;;;;;;;9.30;6.23;;;23.40;99.90;;;;;;8371871;28;20204;-67
2022/06/19 04:43:43;;;;;;;5.87;5.17;;;23.60;99.90;;;;;;8367996;28;20193;-67
2022/06/19 04:47:44;;;;;;;10.33;6.47;;;23.90;99.90;;;;;;8366834;28;20182;-67
2022/06/19 04:51:45;;;;;;;9.23;6.57;;;24.40;99.90;;;;;;8372572;28;20185;-67
2022/06/19 04:55:46;;;;;;;7.13;5.40;;;24.80;99.90;;;;;;8370202;28;20206;-67
2022/06/19 04:59:46;;;;;;;11.63;7.17;;;25.20;99.90;;;;;;8366724;28;20177;-68
2022/06/19 05:03:47;;;;;;;9.63;7.10;;;25.70;99.90;;;;;;8363094;28;20201;-67
2022/06/19 05:07:48;;;;;;;11.13;6.47;;;26.00;99.90;;;;;;8371831;28;20185;-67
2022/06/19 05:11:49;;;;;;;11.33;6.40;;;26.50;99.90;;;;;;8376029;28;20272;-68
2022/06/19 05:15:50;;;;;;;11.97;7.23;;;26.70;99.90;;;;;;8368114;28;20293;-67
2022/06/19 05:19:50;;;;;;;10.87;6.30;;;26.80;99.90;;;;;;8377288;28;20192;-67
2022/06/19 05:23:53;;;;;;;7.07;3.80;;;26.90;99.90;;;;;;8364940;28;20181;-67
2022/06/19 05:27:54;;;;;;;8.40;2.90;;;27.00;86.70;;;;;;8374613;28;20212;-68
2022/06/19 05:31:54;;;;;;;4.40;2.33;;;27.10;1.00;;;;;;8365054;28;20181;-67
2022/06/19 05:35:55;;;;;;;5.13;2.55;;;27.20;1.00;;;;;;8368298;28;20235;-68
2022/06/19 05:39:57;;;;;;;5.05;2.50;;;27.40;1.00;;;;;;8366930;28;20391;-67
2022/06/19 05:43:58;;;;;;;6.40;3.05;;;27.60;1.00;;;;;;8371828;28;20371;-67
2022/06/19 05:47:59;;;;;;;8.77;2.83;;;27.50;32.90;;;;;;8368034;28;20215;-68
2022/06/19 05:52:01;;;;;;;7.65;2.58;;;27.60;16.50;;;;;;8368048;28;20194;-69
2022/06/19 05:56:03;;;;;;;6.07;2.17;;;27.70;1.00;;;;;;8362829;28;20209;-66
2022/06/19 06:00:05;;;;;;;8.02;2.25;;;27.90;1.00;;;;;;8372784;28;20177;-66
2022/06/19 06:04:06;;;;;;;6.78;2.50;;;28.20;1.00;;;;;;8367767;28;20679;-66
2022/06/19 06:08:06;;;;;;;8.52;2.42;;;28.20;1.00;;;;;;8372489;28;20515;-67
2022/06/19 06:12:07;;;;;;;8.68;2.63;;;28.40;1.00;;;;;;8374970;28;20204;-66
2022/06/19 06:16:17;;;;;;;4.75;2.58;;;28.50;1.00;;;;;;8372054;28;20213;-63
2022/06/19 06:20:18;;;;;;;4.30;2.53;;;28.70;1.00;;;;;;8374772;28;20173;-64
2022/06/19 06:24:18;;;;;;;12.18;2.80;;;28.70;1.00;;;;;;8376606;28;20190;-67
2022/06/19 06:28:19;;;;;;;6.88;2.20;;;28.80;1.00;;;;;;8379217;28;20209;-65
2022/06/19 06:32:20;;;;;;;4.90;2.17;;;29.00;1.00;;;;;;8377128;28;20189;-67
2022/06/19 06:36:21;;;;;;;5.05;2.33;;;29.40;1.00;;;;;;8378051;28;20210;-65
2022/06/19 06:40:22;;;;;;;8.63;2.03;;;29.60;1.00;;;;;;8380177;28;20182;-68
2022/06/19 06:44:22;;;;;;;5.70;2.03;;;29.80;1.00;;;;;;8383866;28;20191;-66
2022/06/19 06:48:23;;;;;;;7.13;2.33;;;29.90;1.00;;;;;;8374033;28;20188;-68
2022/06/19 06:52:24;;;;;;;6.47;2.47;;;30.10;1.00;;;;;;8381803;28;20422;-65
2022/06/19 06:56:25;;;;;;;7.68;2.35;;;30.40;1.00;;;;;;8377729;28;20212;-68
2022/06/19 07:00:26;;;;;;;3.67;2.20;;;30.50;1.00;;;;;;8373693;28;20182;-67
2022/06/19 07:04:26;;;;;;;9.23;2.58;;;30.80;1.00;;;;;;8377613;28;20205;-65
2022/06/19 07:08:27;;;;;;;8.55;2.15;;;30.90;1.00;;;;;;8379029;28;20197;-69
2022/06/19 07:12:28;;;;;;;3.35;2.08;;;31.00;1.00;;;;;;8374524;28;20205;-67
2022/06/19 07:16:29;;;;;;;2.70;1.83;;;31.20;1.00;;;;;;8375764;28;20713;-72
2022/06/19 07:20:30;;;;;;;6.57;2.00;;;31.40;1.00;;;;;;8381230;28;20185;-66
2022/06/19 07:24:30;;;;;;;7.60;2.10;;;31.50;1.00;;;;;;8374019;28;20185;-66
2022/06/19 07:28:31;;;;;;;8.07;2.05;;;31.50;1.00;;;;;;8374647;28;20232;-68
2022/06/19 07:32:32;;;;;;;6.88;2.17;;;31.60;1.00;;;;;;8370294;28;20217;-67
2022/06/19 07:36:33;;;;;;;5.55;1.80;;;31.80;1.00;;;;;;8368451;28;20232;-65
2022/06/19 07:40:34;;;;;;;5.60;2.00;;;31.80;1.00;;;;;;8369765;28;20389;-65
2022/06/19 07:44:36;;;;;;;4.43;1.90;;;32.00;1.00;;;;;;8372534;28;20182;-69
2022/06/19 07:53:00;;;;;;;3.75;2.17;;;32.30;1.00;;;;;;8370064;28;20520;-67
2022/06/19 07:57:01;;;;;;;4.68;2.03;;;32.30;1.00;;;;;;8369268;28;20232;-66
2022/06/19 08:01:02;;;;;;;4.90;1.88;;;32.40;1.00;;;;;;8369215;28;20179;-71
2022/06/19 08:05:05;;;;;;;5.95;1.60;;;32.40;1.00;;;;;;8377541;28;20268;-65
2022/06/19 08:09:06;;;;;;;5.45;1.73;;;32.60;1.00;;;;;;8369535;28;20271;-66
2022/06/19 08:13:07;;;;;;;5.78;2.15;;;32.80;1.00;;;;;;8364771;28;20193;-67
2022/06/19 08:17:08;;;;;;;3.63;2.08;;;32.90;1.00;;;;;;8367361;28;20205;-67
2022/06/19 08:21:09;;;;;;;5.78;2.05;;;33.00;1.00;;;;;;8365818;28;20185;-66
2022/06/19 08:25:12;;;;;;;7.65;2.20;;;33.10;1.00;;;;;;8367038;28;20182;-71
2022/06/19 08:29:12;;;;;;;5.80;2.08;;;33.40;1.00;;;;;;8373698;28;20212;-66
2022/06/19 08:33:14;;;;;;;5.10;2.00;;;33.40;1.00;;;;;;8368216;28;20186;-65
2022/06/19 08:37:15;;;;;;;7.43;1.95;;;33.30;1.00;;;;;;8367314;28;20224;-67
2022/06/19 08:41:40;;;;;;;2.92;1.85;;;33.20;1.00;;;;;;8363723;28;20524;-69
2022/06/19 08:46:07;;;;;;;9.90;2.30;;;33.20;1.00;;;;;;8376163;28;20185;-67
2022/06/19 08:50:14;;;;;;;8.55;1.83;;;33.50;1.00;;;;;;8356359;28;20190;-67
2022/06/19 08:54:35;;;;;;;7.95;2.33;;;33.80;99.90;;;;;;8372087;28;20206;-66
2022/06/19 08:58:39;;;;;;;6.18;2.03;;;33.90;99.90;;;;;;8363483;28;20272;-67
2022/06/19 09:02:43;;;;;;;4.65;1.70;;;34.00;99.90;;;;;;8366017;28;20277;-68
2022/06/19 09:07:02;;;;;;;6.25;2.22;;;34.10;99.90;;;;;;8369396;28;20198;-67
2022/06/19 09:11:28;;;;;;;4.65;1.77;;;34.00;99.90;;;;;;8369340;28;20186;-68
2022/06/19 09:15:46;;;;;;;5.13;2.50;;;34.00;99.90;;;;;;8368025;28;20269;-67
2022/06/19 09:20:07;;;;;;;5.63;2.10;;;34.10;99.90;;;;;;8362037;28;20300;-69
2022/06/19 09:24:22;;;;;;;5.40;2.13;;;34.40;99.90;;;;;;8366824;28;20184;-68
2022/06/19 09:28:27;;;;;;;9.02;2.60;;;34.40;99.90;;;;;;8361708;28;20266;-69
2022/06/19 09:32:33;;;;;;;7.93;2.10;;;34.40;99.90;;;;;;8377802;28;20604;-68
2022/06/19 09:36:39;;;;;;;8.23;2.38;;;34.30;99.90;;;;;;8369713;28;20269;-67
2022/06/19 09:40:48;;;;;;;5.43;2.13;;;34.40;99.90;;;;;;8371736;28;20174;-67
2022/06/19 09:44:52;;;;;;;8.85;2.38;;;34.70;99.90;;;;;;8362257;28;20186;-67
2022/06/19 09:49:06;;;;;;;7.45;2.10;;;34.90;99.90;;;;;;8371634;28;20261;-66
2022/06/19 09:53:16;;;;;;;5.95;1.75;;;35.00;99.90;;;;;;8367382;28;20202;-69
2022/06/19 09:57:32;;;;;;;8.15;2.17;;;35.10;99.90;;;;;;8372954;28;20213;-68
2022/06/19 10:01:34;;;;;;;9.07;1.90;;;35.30;99.90;;;;;;8372272;28;20185;-66
2022/06/19 10:05:50;;;;;;;9.70;2.30;;;35.40;99.90;;;;;;8362784;28;20204;-68
2022/06/19 10:09:57;;;;;;;11.85;2.03;;;35.20;99.90;;;;;;8368106;28;20200;-66
2022/06/19 10:14:18;;;;;;;8.02;2.22;;;35.20;99.90;;;;;;8360930;28;20213;-66
2022/06/19 10:18:31;;;;;;;8.02;2.47;;;35.20;99.90;;;;;;8361616;28;20186;-67
2022/06/19 10:22:50;;;;;;;7.30;1.90;;;35.20;99.90;;;;;;8360953;28;20181;-68
2022/06/19 10:26:57;;;;;;;5.88;1.65;;;35.30;99.90;;;;;;8366056;28;20187;-65
2022/06/19 10:31:40;;;;;;;4.93;1.70;;;35.30;99.90;;;;;;8354511;28;20182;-62
2022/06/19 10:35:55;;;;;;;7.43;2.13;;;35.50;99.90;;;;;;8325186;28;20282;-62
2022/06/19 10:40:11;;;;;;;7.45;2.20;;;35.50;99.90;;;;;;8360671;28;20181;-64
2022/06/19 10:44:15;;;;;;;6.88;2.28;;;35.60;99.90;;;;;;8369257;28;20240;-65
2022/06/19 10:48:22;;;;;;;6.35;1.92;;;35.80;99.90;;;;;;8360400;28;20174;-65
2022/06/19 10:52:47;;;;;;;12.65;1.90;;;35.80;99.90;;;;;;8360524;28;20194;-64
2022/06/19 10:57:09;;;;;;;10.77;2.10;;;36.00;99.90;;;;;;8361883;28;20244;-63
2022/06/19 11:04:06;;;;;;;8.05;2.17;;;36.10;99.90;;;;;;8373936;28;20188;-62
2022/06/19 11:06:12;;;;;;;5.72;1.98;;;36.00;99.90;;;;;;8366620;28;20243;-68
2022/06/19 11:10:27;;;;;;;7.93;2.10;;;36.10;99.90;;;;;;8292412;28;20246;-64
2022/06/19 11:14:29;;;;;;;8.38;2.25;;;36.10;99.90;;;;;;8330365;28;20222;-64
2022/06/19 11:18:49;;;;;;;7.07;1.98;;;35.90;99.90;;;;;;8368659;28;20265;-65
2022/06/19 11:22:57;;;;;;;9.55;2.15;;;36.00;99.90;;;;;;8371400;28;20180;-66
2022/06/19 11:26:59;;;;;;;7.70;2.60;;;36.10;99.90;;;;;;8366503;28;20475;-67
2022/06/19 11:31:10;;;;;;;10.85;3.00;;;36.10;99.90;;;;;;8365642;28;20219;-65
2022/06/19 11:35:11;;;;;;;14.00;2.50;;;36.30;99.90;;;;;;8368650;28;20205;-67
2022/06/19 11:39:35;;;;;;;12.18;2.53;;;36.30;99.90;;;;;;8370759;28;20182;-64
2022/06/19 11:43:36;;;;;;;10.38;2.17;;;36.30;99.90;;;;;;8378670;28;20271;-66
2022/06/19 11:47:43;;;;;;;8.93;2.42;;;36.30;99.90;;;;;;8373548;28;20185;-65
2022/06/19 11:51:45;;;;;;;11.70;2.42;;;36.40;99.90;;;;;;8367124;28;20205;-68
2022/06/19 11:55:49;;;;;;;14.30;2.65;;;36.50;99.90;;;;;;8372087;28;20201;-68
2022/06/19 11:59:56;;;;;;;11.00;2.10;;;36.40;99.90;;;;;;8370702;28;20190;-69
2022/06/19 12:04:00;;;;;;;12.35;2.72;;;36.40;99.90;;;;;;8370601;28;20193;-66
2022/06/19 12:08:22;;;;;;;17.73;2.75;;;36.40;99.90;;;;;;8378014;28;20537;-67
2022/06/19 12:12:25;;;;;;;12.73;2.55;;;36.50;99.90;;;;;;8372310;28;20267;-68
2022/06/19 12:16:26;;;;;;;12.15;2.70;;;36.50;99.90;;;;;;8368905;28;20240;-66
2022/06/19 12:20:33;;;;;;;9.18;2.55;;;36.60;99.90;;;;;;8367480;28;20243;-65
2022/06/19 12:24:50;;;;;;;15.27;3.00;;;36.70;99.90;;;;;;8364165;28;20189;-67
2022/06/19 12:28:57;;;;;;;10.57;2.35;;;36.60;99.90;;;;;;8365710;28;20206;-68
2022/06/19 12:32:59;;;;;;;9.13;2.35;;;36.50;99.90;;;;;;8364732;28;20474;-67
2022/06/19 12:37:00;;;;;;;10.07;2.78;;;36.30;99.90;;;;;;8371239;28;20217;-66
2022/06/19 12:41:08;;;;;;;12.02;2.70;;;36.20;99.90;;;;;;8378564;28;20227;-67
2022/06/19 12:45:35;;;;;;;11.32;2.75;;;36.00;99.90;;;;;;8372927;28;20173;-65
2022/06/19 12:49:48;;;;;;;6.43;2.13;;;36.10;99.90;;;;;;8368343;28;20191;-67
2022/06/19 12:54:23;;;;;;;9.40;2.22;;;36.20;99.90;;;;;;8371410;28;20185;-65
2022/06/19 12:58:30;;;;;;;8.32;2.05;;;36.20;99.90;;;;;;8371188;28;20185;-66
2022/06/19 13:02:39;;;;;;;5.90;1.77;;;36.10;99.90;;;;;;8368555;28;20410;-67
2022/06/19 13:07:18;;;;;;;10.70;2.22;;;36.30;99.90;;;;;;8365066;28;20190;-65
2022/06/19 13:11:52;;;;;;;8.07;1.50;;;36.20;99.90;;;;;;8365887;28;20200;-69
2022/06/19 13:16:05;;;;;;;5.82;1.92;;;36.30;99.90;;;;;;8371267;28;20209;-69
2022/06/19 13:20:22;;;;;;;12.88;2.28;;;36.30;99.90;;;;;;8367618;28;20179;-66
2022/06/19 13:25:04;;;;;;;7.70;1.98;;;36.30;99.90;;;;;;8370934;28;20192;-67
2022/06/19 13:29:40;;;;;;;6.72;1.40;;;36.40;99.90;;;;;;8367284;28;20217;-64
2022/06/19 13:34:15;;;;;;;7.80;1.65;;;36.30;99.90;;;;;;8367126;28;20234;-66
2022/06/19 13:38:49;;;;;;;8.23;2.38;;;36.30;99.90;;;;;;8367804;28;20241;-67
2022/06/19 13:43:05;;;;;;;8.85;2.05;;;36.20;99.90;;;;;;8372373;28;20300;-65
2022/06/19 13:47:28;;;;;;;10.40;2.03;;;36.20;99.90;;;;;;8367819;28;20189;-66
2022/06/19 13:52:01;;;;;;;11.45;2.20;;;36.00;99.90;;;;;;8364591;28;20184;-67
2022/06/19 13:56:05;;;;;;;7.25;1.73;;;36.10;99.90;;;;;;8362650;28;20217;-65
2022/06/19 14:00:32;;;;;;;12.48;1.95;;;36.10;99.90;;;;;;8366889;28;20177;-66
2022/06/19 14:04:52;;;;;;;7.35;1.75;;;36.00;99.90;;;;;;8374640;28;20215;-68
2022/06/19 14:09:29;;;;;;;12.35;2.22;;;36.10;99.90;;;;;;8367323;28;20188;-68
2022/06/19 14:13:59;;;;;;;10.43;1.92;;;36.10;99.90;;;;;;8367438;28;20220;-64
2022/06/19 14:18:08;;;;;;;9.10;1.98;;;36.00;99.90;;;;;;8365642;28;20204;-68
2022/06/19 14:22:33;;;;;;;11.45;2.25;;;36.10;99.90;;;;;;8368416;28;20174;-67
2022/06/19 14:26:59;;;;;;;8.40;2.13;;;36.10;99.90;;;;;;8361942;28;20193;-65
2022/06/19 14:31:00;;;;;;;13.85;2.30;;;36.10;99.90;;;;;;8367938;28;20208;-68
2022/06/19 14:35:01;;;;;;;9.70;2.20;;;36.20;99.90;;;;;;8370265;28;20208;-67
2022/06/19 14:39:25;;;;;;;14.20;2.10;;;36.10;99.90;;;;;;8369949;28;20224;-67
2022/06/19 14:43:42;;;;;;;10.43;2.28;;;36.00;99.90;;;;;;8389917;28;20204;-66
2022/06/19 14:48:18;;;;;;;9.27;1.98;;;36.00;99.90;;;;;;8379132;28;20241;-67
2022/06/19 14:52:34;;;;;;;19.23;2.90;;;36.00;99.90;;;;;;8368639;28;20193;-69
2022/06/19 14:57:07;;;;;;;9.52;2.08;;;36.10;99.90;;;;;;8368171;28;20255;-63
2022/06/19 15:01:20;;;;;;;9.50;2.00;;;36.20;99.90;;;;;;8377950;28;20181;-67
2022/06/19 15:05:36;;;;;;;14.85;1.98;;;36.10;99.90;;;;;;8366622;28;20204;-66
2022/06/19 15:09:43;;;;;;;9.90;1.90;;;36.10;99.90;;;;;;8366704;28;20197;-66
2022/06/19 15:13:47;;;;;;;11.18;2.30;;;36.10;99.90;;;;;;8376949;28;20184;-66
2022/06/19 15:18:13;;;;;;;11.13;2.05;;;36.00;99.90;;;;;;8371323;28;20193;-66
2022/06/19 15:22:26;;;;;;;9.05;1.92;;;35.90;99.90;;;;;;8374353;28;20181;-68
2022/06/19 15:26:27;;;;;;;8.02;1.80;;;35.90;99.90;;;;;;8366254;28;20422;-65
2022/06/19 15:30:32;;;;;;;6.38;1.73;;;35.90;99.90;;;;;;8374797;28;20232;-66
2022/06/19 15:34:59;;;;;;;7.63;2.05;;;36.00;99.90;;;;;;8374025;28;20216;-67
2022/06/19 15:39:09;;;;;;;9.18;1.98;;;36.10;99.90;;;;;;8365076;28;20177;-67
2022/06/19 15:43:18;;;;;;;7.93;1.92;;;36.10;99.90;;;;;;8373260;28;20178;-67
2022/06/19 15:47:19;;;;;;;7.38;1.60;;;36.10;99.90;;;;;;8371229;28;20574;-65
2022/06/19 15:51:30;;;;;;;9.68;2.38;;;36.10;99.90;;;;;;8371764;28;20243;-66
2022/06/19 15:55:44;;;;;;;8.50;1.83;;;36.00;99.90;;;;;;8364688;28;20242;-68
2022/06/19 15:59:46;;;;;;;8.23;2.17;;;36.00;99.90;;;;;;8368748;28;20212;-65
2022/06/19 16:03:53;;;;;;;10.93;1.90;;;35.90;99.90;;;;;;8368396;28;20189;-67
2022/06/19 16:07:54;;;;;;;11.15;2.40;;;35.80;99.90;;;;;;8370111;28;20190;-64
2022/06/19 16:11:59;;;;;;;7.95;1.80;;;35.80;99.90;;;;;;8367944;28;20185;-67
2022/06/19 16:16:08;;;;;;;9.52;2.28;;;35.80;99.90;;;;;;8367686;28;20209;-65
2022/06/19 16:20:17;;;;;;;6.82;1.70;;;35.80;99.90;;;;;;8371104;28;20186;-65
2022/06/19 16:24:19;;;;;;;8.57;2.13;;;35.80;99.90;;;;;;8365504;28;20406;-66
2022/06/19 16:28:29;;;;;;;9.60;1.85;;;35.80;99.90;;;;;;8369601;28;20274;-66
2022/06/19 16:32:37;;;;;;;10.98;2.25;;;35.90;99.90;;;;;;8372238;28;20214;-64
2022/06/19 16:45:23;;;;;;;11.00;2.05;;;35.80;99.90;;;;;;8373076;28;20212;-66
2022/06/19 16:49:37;;;;;;;9.27;3.03;;;35.80;99.90;;;;;;8375896;28;20196;-66
2022/06/19 16:53:51;;;;;;;18.02;14.55;;;35.60;99.90;;;;;;8364218;28;20182;-64
2022/06/19 16:58:14;;;;;;;9.88;2.92;;;35.50;99.90;;;;;;8363726;28;20510;-65
2022/06/19 17:02:19;;;;;;;8.85;2.25;;;35.40;99.90;;;;;;8368296;28;20185;-66
2022/06/19 17:06:24;;;;;;;8.93;2.20;;;35.40;99.90;;;;;;8368303;28;20407;-67
2022/06/19 17:10:25;;;;;;;6.40;2.13;;;35.50;99.90;;;;;;8366020;28;20189;-62
2022/06/19 17:14:46;;;;;;;8.43;2.50;;;35.50;99.90;;;;;;8372318;28;20528;-66
2022/06/19 17:18:51;;;;;;;10.55;2.78;;;35.80;99.90;;;;;;8374436;28;20181;-68
2022/06/19 17:23:28;;;;;;;9.68;2.63;;;36.30;99.90;;;;;;8372459;28;20169;-66
2022/06/19 17:27:30;;;;;;;17.85;4.75;;;36.90;99.90;;;;;;8306058;28;20264;-65
2022/06/19 17:31:35;;;;;;;14.70;7.72;;;37.40;99.90;;;;;;8368310;28;20603;-67
2022/06/19 17:35:42;;;;;;;9.05;3.42;;;37.80;99.90;;;;;;8367037;28;20275;-67
2022/06/19 17:39:47;;;;;;;6.05;2.20;;;38.20;99.90;;;;;;8368309;28;20255;-70
2022/06/19 17:43:54;;;;;;;7.32;2.03;;;38.50;99.90;;;;;;8368087;28;20240;-66
2022/06/19 17:47:55;;;;;;;6.88;2.00;;;38.80;99.90;;;;;;8367832;28;20194;-64
2022/06/19 17:52:30;;;;;;;9.90;2.20;;;38.70;99.90;;;;;;8372416;28;20204;-66
2022/06/19 17:56:48;;;;;;;6.72;1.83;;;38.50;99.90;;;;;;8370681;28;20252;-66
2022/06/19 18:01:01;;;;;;;5.55;2.22;;;38.50;99.90;;;;;;8368976;28;20184;-67
2022/06/19 18:05:06;;;;;;;7.38;2.30;;;38.40;99.90;;;;;;8363472;28;20278;-65
2022/06/19 18:09:07;;;;;;;8.50;2.63;;;38.20;99.90;;;;;;8363419;28;20184;-66
2022/06/19 18:13:25;;;;;;;7.15;2.35;;;37.90;99.90;;;;;;8371130;28;20177;-64
2022/06/19 18:21:46;;;;;;;9.52;2.65;;;36.90;99.90;;;;;;8366586;28;20208;-66
2022/06/19 18:25:46;;;;;;;4.15;1.90;;;36.30;99.90;;;;;;8368825;28;20185;-66
2022/06/19 18:29:50;;;;;;;6.68;2.40;;;36.00;99.90;;;;;;8372863;28;20201;-65
2022/06/19 18:33:53;;;;;;;6.63;2.30;;;35.50;99.90;;;;;;8372315;28;20205;-66
2022/06/19 18:37:53;;;;;;;5.95;1.80;;;34.70;99.90;;;;;;8363946;28;21108;-65
2022/06/19 18:41:57;;;;;;;10.27;2.42;;;33.90;99.90;;;;;;8366160;28;20181;-64
2022/06/19 18:45:59;;;;;;;6.68;2.35;;;32.70;99.90;;;;;;8372543;28;20177;-64
2022/06/19 18:50:03;;;;;;;8.18;2.35;;;31.40;99.90;;;;;;8366167;28;20188;-65
2022/06/19 18:54:04;;;;;;;5.65;2.08;;;31.20;99.90;;;;;;8362275;28;20185;-65
2022/06/19 18:58:14;;;;;;;5.95;2.10;;;31.00;99.90;;;;;;8366926;28;20185;-65
2022/06/19 19:02:17;;;;;;;6.90;3.60;;;30.90;99.90;;;;;;8369918;28;20197;-64
2022/06/19 19:06:20;;;;;;;8.27;4.43;;;30.60;99.90;;;;;;8364498;28;20265;-67
2022/06/19 19:10:25;;;;;;;12.32;5.40;;;30.30;99.90;;;;;;8367460;28;20186;-65
2022/06/19 19:14:28;;;;;;;9.27;4.70;;;30.00;1.00;;;;;;8365657;28;20208;-66
2022/06/19 19:18:29;;;;;;;8.68;5.28;;;29.80;1.00;;;;;;8369772;28;20227;-67
2022/06/19 19:22:31;;;;;;;14.57;7.28;;;29.50;1.00;;;;;;8368873;28;20182;-68
2022/06/19 19:26:32;;;;;;;11.27;5.78;;;29.40;1.00;;;;;;8367492;28;20188;-65
2022/06/19 19:30:35;;;;;;;13.32;5.15;;;29.20;1.00;;;;;;8366952;28;20230;-66
2022/06/19 19:34:36;;;;;;;17.15;5.30;;;29.00;1.00;;;;;;8371984;28;20437;-66
2022/06/19 19:38:38;;;;;;;9.48;4.40;;;28.70;1.00;;;;;;8373654;28;20178;-66
2022/06/19 19:42:39;;;;;;;8.98;4.45;;;28.20;1.00;;;;;;8374995;28;20296;-66
2022/06/19 19:46:52;;;;;;;7.47;4.00;;;27.90;34.40;;;;;;8378229;28;20189;-63
2022/06/19 19:50:54;;;;;;;9.15;4.00;;;27.70;66.80;;;;;;8363504;28;20188;-67
2022/06/19 19:54:56;;;;;;;8.87;4.77;;;27.50;94.90;;;;;;8366233;28;20246;-66
2022/06/19 19:58:57;;;;;;;9.93;4.67;;;27.30;99.90;;;;;;8369485;28;20327;-66
2022/06/19 20:02:58;;;;;;;10.03;4.37;;;27.20;99.90;;;;;;8373188;28;20198;-63
2022/06/19 20:11:21;;;;;;;7.80;4.23;;;26.80;99.90;;;;;;8374237;28;20200;-66
2022/06/19 20:15:22;;;;;;;10.67;4.20;;;26.60;99.90;;;;;;8369004;28;20202;-65
2022/06/19 20:19:23;;;;;;;6.50;3.80;;;26.40;99.90;;;;;;8369232;28;20281;-65
2022/06/19 20:23:33;;;;;;;11.40;4.67;;;26.20;99.90;;;;;;8374662;28;20186;-64
2022/06/19 20:27:37;;;;;;;11.53;3.83;;;26.00;99.90;;;;;;8370171;28;20298;-65
2022/06/19 20:31:40;;;;;;;9.13;4.27;;;25.80;99.90;;;;;;8368295;28;20251;-66
2022/06/19 20:35:41;;;;;;;12.13;5.10;;;25.70;99.90;;;;;;8375109;28;20205;-66
2022/06/19 20:39:42;;;;;;;14.33;4.10;;;25.50;99.90;;;;;;8372267;28;20186;-64
2022/06/19 20:43:43;;;;;;;10.03;3.80;;;25.30;99.90;;;;;;8361314;28;20231;-65
2022/06/19 20:47:49;;;;;;;11.90;4.53;;;25.10;99.90;;;;;;8366193;28;20203;-66
2022/06/19 20:51:49;;;;;;;8.40;4.20;;;25.00;99.90;;;;;;8365077;28;20198;-65
2022/06/19 20:55:50;;;;;;;7.63;3.90;;;24.90;99.90;;;;;;8364766;28;20217;-65
2022/06/19 20:59:52;;;;;;;11.73;4.37;;;24.80;99.90;;;;;;8368029;28;20185;-66
2022/06/19 21:03:53;;;;;;;9.83;4.03;;;24.70;99.90;;;;;;8369770;28;20528;-66
2022/06/19 21:07:58;;;;;;;10.40;4.07;;;24.60;99.90;;;;;;8371873;28;20186;-66
2022/06/19 21:11:59;;;;;;;10.67;4.10;;;24.50;99.90;;;;;;8365677;28;20185;-66
2022/06/19 21:16:02;;;;;;;15.77;4.53;;;24.30;99.90;;;;;;8369071;28;20205;-67
2022/06/19 21:20:04;;;;;;;7.30;3.90;;;24.20;99.90;;;;;;8364742;28;20197;-66
2022/06/19 21:24:10;;;;;;;13.43;4.53;;;24.10;99.90;;;;;;8363949;28;20209;-66
2022/06/19 21:28:15;;;;;;;8.57;3.93;;;23.90;99.90;;;;;;8369370;28;20208;-66
2022/06/19 21:32:16;;;;;;;9.00;3.83;;;23.80;99.90;;;;;;8372475;28;20186;-65
2022/06/19 21:36:40;;;;;;;9.97;3.87;;;23.70;99.90;;;;;;8364186;28;20201;-66
2022/06/19 21:40:46;;;;;;;6.00;4.03;;;23.60;99.90;;;;;;8366675;28;20242;-66
2022/06/19 21:44:46;;;;;;;10.23;4.17;;;23.50;99.90;;;;;;8368346;28;20246;-65
2022/06/19 21:48:47;;;;;;;11.70;4.27;;;23.30;1.00;;;;;;8369732;28;20190;-66